Time;durP1;ratioP1;P1;durP2;ratioP2;P2;SDS_P1;SDS_P2;PMS_P1;PMS_P2;Temp;Humidity;BMP_temperature;BMP_pressure;BME280_temperature;BME280_humidity;BME280_pressure;Samples;Min_cycle;Max_cycle;Signal;HPM_P1;HPM_P2
2023/09/11 00:01:16;;;;;;;14.37;12.97;;;21.80;99.90;;;;;;6130271;23;20171;-74
2023/09/11 00:03:41;;;;;;;13.23;12.00;;;21.80;99.90;;;;;;6130431;23;20391;-72
2023/09/11 00:06:07;;;;;;;14.53;13.13;;;21.70;99.90;;;;;;6129922;23;20410;-74
2023/09/11 00:08:33;;;;;;;14.70;13.10;;;21.70;99.90;;;;;;6130655;23;20525;-71
2023/09/11 00:10:59;;;;;;;15.87;14.17;;;21.70;99.90;;;;;;6133676;23;20405;-72
2023/09/11 00:13:26;;;;;;;14.57;13.10;;;21.60;99.90;;;;;;6142023;23;20402;-74
2023/09/11 00:15:53;;;;;;;12.97;11.73;;;21.60;99.90;;;;;;6144753;23;20128;-74
2023/09/11 00:18:19;;;;;;;13.70;12.40;;;21.60;99.90;;;;;;6120076;23;20367;-73
2023/09/11 00:20:44;;;;;;;13.57;12.37;;;21.50;99.90;;;;;;6119704;23;20350;-72
2023/09/11 00:23:10;;;;;;;13.30;12.10;;;21.50;99.90;;;;;;6118153;23;20168;-71
2023/09/11 00:25:36;;;;;;;12.63;11.43;;;21.50;99.90;;;;;;6117778;23;20214;-75
2023/09/11 00:28:02;;;;;;;11.47;10.47;;;21.40;99.90;;;;;;6095983;23;20144;-72
2023/09/11 00:30:27;;;;;;;11.37;10.20;;;21.40;99.90;;;;;;6145520;23;20179;-72
2023/09/11 00:32:56;;;;;;;11.70;10.60;;;21.30;99.90;;;;;;6145460;23;20384;-73
2023/09/11 00:35:21;;;;;;;12.53;11.23;;;21.30;99.90;;;;;;6092319;23;20478;-73
2023/09/11 00:37:47;;;;;;;14.80;11.77;;;21.30;99.90;;;;;;6129065;23;20442;-72
2023/09/11 00:40:13;;;;;;;13.47;12.17;;;21.20;99.90;;;;;;6131817;23;20175;-74
2023/09/11 00:42:38;;;;;;;13.20;11.90;;;21.20;99.90;;;;;;6128809;23;20214;-72
2023/09/11 00:45:04;;;;;;;12.50;11.20;;;21.10;99.90;;;;;;6103572;23;20155;-73
2023/09/11 00:47:30;;;;;;;11.13;10.10;;;21.10;99.90;;;;;;6129001;23;20139;-72
2023/09/11 00:49:58;;;;;;;11.40;10.30;;;21.10;99.90;;;;;;6128869;23;20429;-73
2023/09/11 00:52:25;;;;;;;11.13;10.13;;;21.00;99.90;;;;;;6131459;23;20277;-73
2023/09/11 00:54:54;;;;;;;11.47;10.47;;;21.00;99.90;;;;;;6130201;23;20391;-72
2023/09/11 00:57:21;;;;;;;13.63;12.27;;;21.00;99.90;;;;;;6128730;23;20359;-72
2023/09/11 00:59:50;;;;;;;15.47;13.57;;;21.00;99.90;;;;;;6103094;23;20356;-73
2023/09/11 01:02:15;;;;;;;13.40;12.20;;;21.00;99.90;;;;;;6103408;23;20379;-72
2023/09/11 01:04:43;;;;;;;12.50;11.40;;;20.90;99.90;;;;;;6103328;23;20407;-71
2023/09/11 01:07:10;;;;;;;11.70;10.70;;;20.90;99.90;;;;;;6103430;23;20208;-73
2023/09/11 01:09:36;;;;;;;14.20;12.80;;;20.80;99.90;;;;;;6129335;23;20643;-72
2023/09/11 01:12:01;;;;;;;13.07;11.87;;;20.80;99.90;;;;;;6129037;23;20427;-73
2023/09/11 01:14:28;;;;;;;12.10;10.97;;;20.80;99.90;;;;;;6103203;23;20216;-72
2023/09/11 01:17:02;;;;;;;12.77;11.67;;;20.80;99.90;;;;;;6103242;23;20516;-71
2023/09/11 01:19:55;;;;;;;12.47;11.33;;;20.70;99.90;;;;;;6128510;23;20765;-71
2023/09/11 01:22:47;;;;;;;13.40;12.10;;;20.70;99.90;;;;;;6128815;23;20376;-72
2023/09/11 01:25:48;;;;;;;15.47;12.87;;;20.70;99.90;;;;;;6128440;23;20415;-73
2023/09/11 01:28:36;;;;;;;13.47;12.13;;;20.70;99.90;;;;;;6102997;23;20361;-72
2023/09/11 01:31:02;;;;;;;14.00;12.60;;;20.70;99.90;;;;;;6128754;23;20425;-72
2023/09/11 01:33:28;;;;;;;13.03;11.73;;;20.70;99.90;;;;;;6128936;23;20860;-71
2023/09/11 01:35:53;;;;;;;13.17;11.77;;;20.60;99.90;;;;;;6102208;23;20426;-72
2023/09/11 01:38:19;;;;;;;14.60;13.23;;;20.70;99.90;;;;;;6128897;23;20132;-73
2023/09/11 01:40:51;;;;;;;18.20;13.47;;;20.60;99.90;;;;;;6127723;23;20376;-72
2023/09/11 01:43:19;;;;;;;15.13;12.40;;;20.60;99.90;;;;;;6103533;23;20414;-73
2023/09/11 01:45:46;;;;;;;14.63;12.13;;;20.60;99.90;;;;;;6128654;23;20443;-71
2023/09/11 01:48:12;;;;;;;14.43;12.97;;;20.60;99.90;;;;;;6103385;23;20807;-72
2023/09/11 01:50:40;;;;;;;13.13;11.80;;;20.60;99.90;;;;;;6102828;23;20670;-72
2023/09/11 01:53:06;;;;;;;12.77;11.10;;;20.60;99.90;;;;;;6103361;23;20427;-72
2023/09/11 01:55:33;;;;;;;11.20;10.10;;;20.50;99.90;;;;;;6103101;23;20670;-73
2023/09/11 01:57:59;;;;;;;9.77;8.83;;;20.40;99.90;;;;;;6102961;23;20385;-72
2023/09/11 02:00:25;;;;;;;11.17;10.00;;;20.40;99.90;;;;;;6103184;23;20372;-73
2023/09/11 02:02:55;;;;;;;9.50;8.70;;;20.40;99.90;;;;;;6129022;23;20843;-71
2023/09/11 02:05:21;;;;;;;9.13;8.33;;;20.30;99.90;;;;;;6128647;23;20433;-72
2023/09/11 02:07:47;;;;;;;9.70;8.70;;;20.20;99.90;;;;;;6128518;23;20383;-74
2023/09/11 02:10:13;;;;;;;9.10;8.20;;;20.20;99.90;;;;;;6128827;23;20411;-75
2023/09/11 02:12:38;;;;;;;7.93;7.33;;;20.20;99.90;;;;;;6102669;23;20148;-74
2023/09/11 02:15:06;;;;;;;8.40;7.70;;;20.20;99.90;;;;;;6103040;23;20192;-74
2023/09/11 02:17:31;;;;;;;10.37;9.27;;;20.10;99.90;;;;;;6128974;23;20136;-74
2023/09/11 02:19:57;;;;;;;8.87;8.07;;;20.10;99.90;;;;;;6103332;23;20707;-72
2023/09/11 02:22:22;;;;;;;8.93;8.13;;;20.10;99.90;;;;;;6102915;23;20644;-72
2023/09/11 02:24:48;;;;;;;13.67;10.50;;;20.10;99.90;;;;;;6128263;23;20192;-72
2023/09/11 02:27:14;;;;;;;14.77;11.37;;;20.10;99.90;;;;;;6102720;23;20159;-71
2023/09/11 02:29:39;;;;;;;13.70;10.50;;;20.10;99.90;;;;;;6103142;23;20172;-72
2023/09/11 02:32:05;;;;;;;15.77;10.30;;;20.10;99.90;;;;;;6103081;23;20219;-71
2023/09/11 02:34:30;;;;;;;12.83;11.50;;;20.00;99.90;;;;;;6103033;23;20516;-72
2023/09/11 02:36:56;;;;;;;11.53;10.20;;;20.00;99.90;;;;;;6128969;23;20141;-71
2023/09/11 02:39:22;;;;;;;11.97;9.80;;;20.00;99.90;;;;;;6129672;23;20140;-72
2023/09/11 02:41:47;;;;;;;15.33;11.00;;;19.90;99.90;;;;;;6129575;23;20566;-73
2023/09/11 02:44:13;;;;;;;11.57;10.67;;;19.90;99.90;;;;;;6105110;23;20194;-72
2023/09/11 02:46:38;;;;;;;12.53;11.33;;;19.90;99.90;;;;;;6130429;23;20525;-72
2023/09/11 02:49:04;;;;;;;11.57;10.53;;;19.90;99.90;;;;;;6130659;23;20231;-73
2023/09/11 02:51:30;;;;;;;10.80;9.90;;;19.90;99.90;;;;;;6130629;23;20194;-73
2023/09/11 02:53:56;;;;;;;10.87;9.50;;;19.80;99.90;;;;;;6104137;23;20172;-71
2023/09/11 02:56:22;;;;;;;10.50;9.60;;;19.80;99.90;;;;;;6129603;23;20363;-72
2023/09/11 02:58:47;;;;;;;14.37;9.50;;;19.80;99.90;;;;;;6104647;23;20140;-72
2023/09/11 03:01:14;;;;;;;11.00;10.00;;;19.70;99.90;;;;;;6130483;23;20587;-74
2023/09/11 03:03:39;;;;;;;9.80;8.80;;;19.80;99.90;;;;;;6104628;23;20194;-72
2023/09/11 03:06:05;;;;;;;10.00;9.10;;;19.70;99.90;;;;;;6104057;23;20546;-72
2023/09/11 03:08:31;;;;;;;10.70;9.70;;;19.70;99.90;;;;;;6104807;23;20387;-73
2023/09/11 03:11:09;;;;;;;12.00;9.70;;;19.70;99.90;;;;;;6104265;23;20506;-75
2023/09/11 03:13:38;;;;;;;9.40;8.47;;;19.70;99.90;;;;;;6104655;23;20395;-73
2023/09/11 03:16:10;;;;;;;12.60;9.80;;;19.70;99.90;;;;;;6132291;23;20777;-73
2023/09/11 03:18:37;;;;;;;11.50;9.80;;;19.60;99.90;;;;;;6086116;23;20413;-73
2023/09/11 03:21:03;;;;;;;13.13;10.97;;;19.60;99.90;;;;;;6110127;23;20380;-72
2023/09/11 03:23:29;;;;;;;10.77;9.73;;;19.60;99.90;;;;;;6111432;23;20430;-72
2023/09/11 03:25:55;;;;;;;10.83;9.73;;;19.60;99.90;;;;;;6112335;23;20475;-71
2023/09/11 03:28:21;;;;;;;12.90;10.97;;;19.60;99.90;;;;;;6135436;23;20395;-71
2023/09/11 03:30:46;;;;;;;11.53;10.37;;;19.60;99.90;;;;;;6135357;23;20179;-72
2023/09/11 03:33:12;;;;;;;11.00;9.90;;;19.50;99.90;;;;;;6135830;23;20183;-71
2023/09/11 03:35:38;;;;;;;14.37;11.07;;;19.50;99.90;;;;;;6103467;23;20160;-72
2023/09/11 03:38:04;;;;;;;15.60;12.50;;;19.50;99.90;;;;;;6104293;23;20379;-72
2023/09/11 03:40:29;;;;;;;14.50;11.60;;;19.50;99.90;;;;;;6103702;23;20449;-73
2023/09/11 03:42:56;;;;;;;12.80;11.20;;;19.50;99.90;;;;;;6103576;23;20176;-72
2023/09/11 03:45:21;;;;;;;14.63;11.37;;;19.50;99.90;;;;;;6129682;23;20363;-72
2023/09/11 03:47:47;;;;;;;15.20;12.70;;;19.50;99.90;;;;;;6129162;23;20474;-72
2023/09/11 03:50:13;;;;;;;13.80;12.30;;;19.50;99.90;;;;;;6103574;23;20408;-73
2023/09/11 03:52:39;;;;;;;13.50;12.20;;;19.50;99.90;;;;;;6130491;23;20510;-73
2023/09/11 03:55:04;;;;;;;12.50;10.60;;;19.40;99.90;;;;;;6137786;23;20163;-71
2023/09/11 03:57:30;;;;;;;10.33;9.07;;;19.40;99.90;;;;;;6109875;23;20132;-72
2023/09/11 03:59:55;;;;;;;11.03;9.93;;;19.40;99.90;;;;;;6135945;23;20147;-71
2023/09/11 04:02:21;;;;;;;14.10;10.40;;;19.30;99.90;;;;;;6105657;23;20559;-72
2023/09/11 04:04:47;;;;;;;11.40;10.20;;;19.30;99.90;;;;;;6104167;23;20179;-72
2023/09/11 04:07:12;;;;;;;13.63;11.13;;;19.30;99.90;;;;;;6108616;23;20152;-73
2023/09/11 04:09:38;;;;;;;12.60;11.30;;;19.30;99.90;;;;;;6020567;23;20186;-73
2023/09/11 04:12:04;;;;;;;15.00;12.00;;;19.30;99.90;;;;;;6052258;23;20153;-73
2023/09/11 04:14:29;;;;;;;13.87;12.37;;;19.20;99.90;;;;;;6017070;23;20173;-74
2023/09/11 04:16:56;;;;;;;14.23;11.17;;;19.30;99.90;;;;;;6016104;23;20409;-74
2023/09/11 04:19:21;;;;;;;13.27;11.57;;;19.20;99.90;;;;;;6044524;23;20158;-72
2023/09/11 04:21:47;;;;;;;14.70;10.57;;;19.20;99.90;;;;;;6045696;23;20390;-73
2023/09/11 04:24:13;;;;;;;13.50;11.27;;;19.20;99.90;;;;;;6045379;23;20474;-72
2023/09/11 04:26:40;;;;;;;17.57;12.40;;;19.20;99.90;;;;;;6043726;23;20193;-72
2023/09/11 04:29:11;;;;;;;13.80;10.50;;;19.20;99.90;;;;;;6015932;23;20428;-72
2023/09/11 04:31:38;;;;;;;12.37;11.10;;;19.10;99.90;;;;;;6039743;23;20378;-73
2023/09/11 04:34:04;;;;;;;13.63;12.23;;;19.10;99.90;;;;;;6015679;23;20390;-72
2023/09/11 04:36:30;;;;;;;12.70;10.27;;;19.10;99.90;;;;;;6038909;23;20426;-71
2023/09/11 04:38:55;;;;;;;12.43;10.50;;;19.10;99.90;;;;;;6040122;23;20504;-72
2023/09/11 04:41:21;;;;;;;12.70;10.77;;;19.10;99.90;;;;;;6091049;23;20148;-71
2023/09/11 04:43:47;;;;;;;12.63;10.90;;;19.20;99.90;;;;;;6109270;23;20176;-73
2023/09/11 04:46:13;;;;;;;13.20;10.53;;;19.20;99.90;;;;;;6108616;23;20465;-74
2023/09/11 04:48:39;;;;;;;14.37;11.87;;;19.10;99.90;;;;;;6133750;23;20401;-72
2023/09/11 04:51:06;;;;;;;14.10;9.87;;;19.10;99.90;;;;;;6104178;23;20156;-72
2023/09/11 04:53:32;;;;;;;14.67;11.47;;;19.10;99.90;;;;;;6129427;23;20380;-72
2023/09/11 04:55:57;;;;;;;12.33;10.00;;;19.10;99.90;;;;;;6129439;23;20143;-72
2023/09/11 04:58:25;;;;;;;10.80;9.80;;;19.10;99.90;;;;;;6103236;23;20182;-72
2023/09/11 05:00:53;;;;;;;15.50;9.60;;;19.10;99.90;;;;;;6107510;23;20145;-74
2023/09/11 05:03:19;;;;;;;10.47;9.37;;;19.10;99.90;;;;;;6092127;23;20423;-75
2023/09/11 05:05:47;;;;;;;14.80;10.03;;;19.00;99.90;;;;;;6093031;23;20804;-74
2023/09/11 05:08:14;;;;;;;11.43;9.00;;;19.10;99.90;;;;;;6116125;23;20380;-74
2023/09/11 05:10:44;;;;;;;11.17;9.20;;;19.10;99.90;;;;;;6094619;23;20474;-75
2023/09/11 05:13:12;;;;;;;12.97;9.23;;;19.00;99.90;;;;;;6005966;23;20474;-75
2023/09/11 05:15:39;;;;;;;10.07;9.07;;;19.00;99.90;;;;;;6031504;23;20414;-73
2023/09/11 05:18:05;;;;;;;12.50;10.47;;;19.00;99.90;;;;;;6026935;23;20378;-75
2023/09/11 05:20:31;;;;;;;10.97;9.37;;;19.10;99.90;;;;;;6029471;23;20385;-73
2023/09/11 05:22:58;;;;;;;10.10;9.10;;;19.10;99.90;;;;;;6031553;23;20410;-75
2023/09/11 05:25:25;;;;;;;13.83;9.30;;;19.10;99.90;;;;;;5969067;24;20248;-76
2023/09/11 05:27:52;;;;;;;15.43;9.50;;;19.10;99.90;;;;;;5968885;24;20787;-76
2023/09/11 05:30:18;;;;;;;12.53;9.83;;;19.20;99.90;;;;;;5946724;24;20187;-75
2023/09/11 05:32:47;;;;;;;12.87;10.40;;;19.20;99.90;;;;;;5993330;24;20652;-74
2023/09/11 05:35:13;;;;;;;11.10;8.63;;;19.20;99.90;;;;;;5968739;24;20557;-73
2023/09/11 05:37:39;;;;;;;15.43;9.70;;;19.20;99.90;;;;;;5971302;24;20377;-77
2023/09/11 05:40:07;;;;;;;10.17;8.93;;;19.30;99.90;;;;;;5949331;24;20160;-73
2023/09/11 05:42:33;;;;;;;11.03;8.90;;;19.40;99.90;;;;;;5947859;24;20377;-75
2023/09/11 05:45:02;;;;;;;13.57;9.17;;;19.40;99.90;;;;;;6025657;23;20386;-75
2023/09/11 05:47:28;;;;;;;12.90;9.30;;;19.40;99.90;;;;;;6032994;23;20366;-74
2023/09/11 05:49:59;;;;;;;9.93;8.60;;;19.50;99.90;;;;;;6032353;23;20453;-74
2023/09/11 05:52:25;;;;;;;11.77;8.63;;;19.50;99.90;;;;;;6057356;23;20198;-75
2023/09/11 05:54:51;;;;;;;12.13;9.33;;;19.60;99.90;;;;;;6032932;23;20689;-74
2023/09/11 05:57:16;;;;;;;13.73;8.93;;;19.60;99.90;;;;;;6060875;23;20160;-75
2023/09/11 05:59:42;;;;;;;13.33;10.13;;;19.60;99.90;;;;;;6092670;23;20408;-75
2023/09/11 06:02:09;;;;;;;18.13;9.70;;;19.70;99.90;;;;;;6088515;23;20141;-73
2023/09/11 06:04:34;;;;;;;12.90;9.70;;;19.70;99.90;;;;;;6064622;23;20400;-75
2023/09/11 06:07:00;;;;;;;13.40;9.90;;;19.80;99.90;;;;;;6113275;23;20148;-75
2023/09/11 06:09:26;;;;;;;16.40;9.50;;;19.80;99.90;;;;;;6064608;23;20233;-73
2023/09/11 06:11:52;;;;;;;12.43;10.70;;;19.90;99.90;;;;;;6060941;23;20193;-74
2023/09/11 06:14:18;;;;;;;16.50;11.50;;;20.00;99.90;;;;;;6087090;23;20640;-74
2023/09/11 06:16:43;;;;;;;11.23;9.60;;;20.00;99.90;;;;;;6063972;23;20433;-74
2023/09/11 06:19:11;;;;;;;12.67;8.83;;;20.10;99.90;;;;;;6065454;23;20176;-75
2023/09/11 06:21:36;;;;;;;16.40;9.97;;;20.10;99.90;;;;;;6067939;23;20124;-75
2023/09/11 06:24:04;;;;;;;10.00;8.13;;;20.20;99.90;;;;;;6117266;23;20532;-74
2023/09/11 06:26:30;;;;;;;12.37;8.93;;;20.20;99.90;;;;;;6118457;23;20163;-73
2023/09/11 06:28:56;;;;;;;10.93;8.77;;;20.30;99.90;;;;;;6093386;23;20422;-72
2023/09/11 06:31:22;;;;;;;13.77;9.10;;;20.30;99.90;;;;;;6118697;23;20144;-75
2023/09/11 06:33:48;;;;;;;10.13;8.17;;;20.40;99.90;;;;;;6117467;23;20281;-73
2023/09/11 06:36:14;;;;;;;12.10;9.77;;;20.40;99.90;;;;;;6097961;23;20477;-73
2023/09/11 06:38:43;;;;;;;24.33;9.10;;;20.50;99.90;;;;;;6120687;23;20388;-75
2023/09/11 06:41:09;;;;;;;10.63;7.43;;;20.50;99.90;;;;;;6119880;23;20360;-77
2023/09/11 06:43:36;;;;;;;21.73;10.17;;;20.60;99.90;;;;;;6097241;23;20401;-76
2023/09/11 06:46:03;;;;;;;13.47;8.40;;;20.60;99.90;;;;;;6096725;23;20148;-74
2023/09/11 06:48:29;;;;;;;12.60;9.30;;;20.70;99.90;;;;;;6095915;23;20406;-74
2023/09/11 06:50:54;;;;;;;10.60;8.50;;;20.80;99.90;;;;;;6095301;23;20387;-75
2023/09/11 06:53:20;;;;;;;14.03;8.87;;;20.80;99.90;;;;;;6094432;23;20167;-74
2023/09/11 06:55:47;;;;;;;16.17;8.20;;;20.90;99.90;;;;;;6121574;23;20148;-74
2023/09/11 06:58:13;;;;;;;13.17;8.70;;;20.90;99.90;;;;;;6144394;23;20146;-75
2023/09/11 07:00:41;;;;;;;13.13;8.93;;;21.00;99.90;;;;;;6145575;23;20371;-74
2023/09/11 07:03:07;;;;;;;14.17;10.33;;;21.00;99.90;;;;;;6120653;23;20431;-75
2023/09/11 07:05:34;;;;;;;13.40;8.67;;;21.10;99.90;;;;;;6119959;23;20392;-75
2023/09/11 07:08:00;;;;;;;13.60;9.17;;;21.10;99.90;;;;;;6120278;23;20155;-76
2023/09/11 07:10:26;;;;;;;14.80;8.50;;;21.30;99.90;;;;;;6061117;23;20901;-74
2023/09/11 07:12:53;;;;;;;16.20;8.90;;;21.30;99.90;;;;;;6035233;23;20202;-75
2023/09/11 07:15:20;;;;;;;11.80;8.17;;;21.30;99.90;;;;;;6037265;23;20145;-76
2023/09/11 07:17:48;;;;;;;14.30;8.73;;;21.40;99.90;;;;;;6062418;23;20373;-75
2023/09/11 07:20:14;;;;;;;15.37;9.77;;;21.40;99.90;;;;;;6083965;23;20416;-75
2023/09/11 07:22:43;;;;;;;13.73;8.40;;;21.50;99.90;;;;;;6037688;23;20465;-77
2023/09/11 07:25:12;;;;;;;16.43;9.37;;;21.50;99.90;;;;;;6062363;23;20429;-75
2023/09/11 07:27:39;;;;;;;10.90;8.73;;;21.60;99.90;;;;;;6058213;23;20395;-76
2023/09/11 07:30:11;;;;;;;15.50;8.43;;;21.60;99.90;;;;;;6057730;23;20425;-75
2023/09/11 07:32:37;;;;;;;17.23;8.73;;;21.70;99.90;;;;;;6059185;23;20839;-74
2023/09/11 07:35:03;;;;;;;16.80;8.77;;;21.80;99.90;;;;;;6059399;23;20540;-73
2023/09/11 07:37:29;;;;;;;16.03;8.40;;;21.80;99.90;;;;;;6050492;23;20370;-74
2023/09/11 07:39:57;;;;;;;15.30;8.57;;;21.90;99.90;;;;;;6066757;23;20463;-75
2023/09/11 07:42:24;;;;;;;12.47;7.93;;;21.90;99.90;;;;;;6111168;23;20388;-74
2023/09/11 07:44:50;;;;;;;27.77;8.23;;;22.00;99.90;;;;;;6095463;23;20431;-76
2023/09/11 07:47:16;;;;;;;13.07;9.00;;;22.10;99.90;;;;;;6097068;23;20426;-77
2023/09/11 07:49:42;;;;;;;11.17;7.80;;;22.20;99.90;;;;;;6120366;23;20400;-75
2023/09/11 07:52:08;;;;;;;9.13;6.80;;;22.20;99.90;;;;;;6119489;23;20144;-74
2023/09/11 07:54:33;;;;;;;10.27;6.63;;;22.40;99.90;;;;;;6090881;23;20172;-77
2023/09/11 07:57:01;;;;;;;11.57;6.97;;;22.50;99.90;;;;;;6113277;23;20204;-74
2023/09/11 07:59:28;;;;;;;8.70;6.70;;;22.50;99.90;;;;;;6093586;23;20171;-73
2023/09/11 08:01:54;;;;;;;10.20;7.30;;;22.60;99.90;;;;;;6095177;23;20391;-76
2023/09/11 08:04:20;;;;;;;15.97;7.70;;;22.70;99.90;;;;;;6077040;23;20540;-74
2023/09/11 08:06:45;;;;;;;15.77;8.40;;;22.80;99.90;;;;;;6034564;23;20154;-74
2023/09/11 08:09:11;;;;;;;8.90;6.67;;;22.90;99.90;;;;;;6083628;23;20200;-74
2023/09/11 08:11:39;;;;;;;8.43;6.70;;;23.00;99.90;;;;;;6059772;23;20233;-74
2023/09/11 08:14:10;;;;;;;8.87;7.20;;;23.10;99.90;;;;;;6087020;23;20173;-76
2023/09/11 08:16:35;;;;;;;14.80;7.87;;;23.20;99.90;;;;;;6062189;23;20386;-75
2023/09/11 08:19:01;;;;;;;9.37;6.43;;;23.30;99.90;;;;;;6060304;23;20382;-74
2023/09/11 08:21:27;;;;;;;16.47;7.93;;;23.40;99.90;;;;;;6062738;23;20209;-75
2023/09/11 08:23:53;;;;;;;12.57;8.00;;;23.50;99.90;;;;;;6060636;23;20204;-75
2023/09/11 08:26:19;;;;;;;12.73;8.23;;;23.50;99.90;;;;;;6041346;23;20168;-74
2023/09/11 08:28:45;;;;;;;12.40;7.37;;;23.60;99.90;;;;;;6088331;23;20173;-75
2023/09/11 08:31:11;;;;;;;14.00;6.93;;;23.70;99.70;;;;;;6064953;23;20378;-74
2023/09/11 08:33:36;;;;;;;14.27;6.90;;;23.70;99.20;;;;;;6062888;23;20432;-78
2023/09/11 08:36:02;;;;;;;14.23;8.03;;;23.80;98.10;;;;;;6063414;23;20209;-75
2023/09/11 08:38:31;;;;;;;13.73;6.47;;;23.90;97.60;;;;;;6064254;23;20441;-74
2023/09/11 08:40:56;;;;;;;8.80;6.90;;;24.00;97.30;;;;;;6061078;23;20369;-74
2023/09/11 08:43:24;;;;;;;14.30;7.87;;;24.10;96.60;;;;;;6085662;23;20213;-74
2023/09/11 08:45:51;;;;;;;11.10;7.50;;;24.10;95.70;;;;;;6063608;23;20161;-74
2023/09/11 08:48:21;;;;;;;8.73;6.70;;;24.10;95.40;;;;;;6060622;23;20365;-75
2023/09/11 08:50:54;;;;;;;14.67;7.70;;;24.20;95.40;;;;;;6064119;23;20464;-75
2023/09/11 08:53:26;;;;;;;15.50;7.83;;;24.40;94.60;;;;;;6039986;23;20401;-77
2023/09/11 08:55:56;;;;;;;15.27;7.20;;;24.40;93.30;;;;;;6042871;23;20409;-74
2023/09/11 08:58:23;;;;;;;13.10;7.13;;;24.50;92.70;;;;;;6066328;23;20402;-75
2023/09/11 09:00:49;;;;;;;12.07;7.10;;;24.60;92.30;;;;;;6089504;23;20390;-76
2023/09/11 09:03:16;;;;;;;10.47;6.60;;;24.70;91.00;;;;;;6061115;23;20429;-75
2023/09/11 09:05:42;;;;;;;11.93;6.67;;;24.70;90.60;;;;;;6055254;23;20357;-76
2023/09/11 09:08:12;;;;;;;9.10;6.37;;;24.70;90.50;;;;;;6007809;23;20421;-75
2023/09/11 09:10:39;;;;;;;14.20;7.80;;;24.80;90.20;;;;;;6029886;23;20427;-75
2023/09/11 09:13:06;;;;;;;15.60;8.27;;;24.90;89.80;;;;;;6030192;23;20640;-76
2023/09/11 09:15:35;;;;;;;15.33;6.47;;;25.00;88.70;;;;;;6009827;23;20400;-75
2023/09/11 09:18:01;;;;;;;10.47;7.67;;;25.00;87.60;;;;;;6029846;23;20375;-76
2023/09/11 09:20:32;;;;;;;10.80;7.40;;;25.10;86.70;;;;;;6031732;23;20418;-75
2023/09/11 09:23:01;;;;;;;16.30;8.20;;;25.20;85.30;;;;;;6002527;24;20404;-76
2023/09/11 09:25:30;;;;;;;14.87;7.33;;;25.30;84.80;;;;;;6002875;24;20391;-77
2023/09/11 09:27:57;;;;;;;14.07;7.13;;;25.40;84.80;;;;;;5932933;24;20456;-75
2023/09/11 09:30:26;;;;;;;9.87;7.23;;;25.40;83.70;;;;;;6003664;24;20420;-76
2023/09/11 09:32:53;;;;;;;8.17;6.73;;;25.50;82.50;;;;;;5933581;24;20400;-74
2023/09/11 09:35:32;;;;;;;12.03;7.27;;;25.60;80.80;;;;;;5957694;24;20377;-78
2023/09/11 09:37:59;;;;;;;9.90;7.50;;;25.60;80.20;;;;;;5955895;24;20388;-74
2023/09/11 09:40:39;;;;;;;13.73;8.03;;;25.80;79.70;;;;;;6002746;24;20413;-74
2023/09/11 09:43:27;;;;;;;28.50;8.50;;;25.80;78.60;;;;;;5980382;24;20464;-77
2023/09/11 09:45:57;;;;;;;7.07;6.37;;;25.90;77.00;;;;;;6001953;24;20455;-77
2023/09/11 09:48:23;;;;;;;10.90;6.23;;;26.00;77.40;;;;;;5958250;24;20430;-76
2023/09/11 09:51:01;;;;;;;10.60;6.70;;;26.10;76.60;;;;;;6002660;24;20431;-76
2023/09/11 09:53:41;;;;;;;10.60;6.40;;;26.20;76.10;;;;;;5971081;23;20182;-74
2023/09/11 09:56:09;;;;;;;10.80;6.80;;;26.30;75.10;;;;;;6031123;23;20390;-72
2023/09/11 09:58:43;;;;;;;12.97;6.40;;;26.30;74.20;;;;;;6009586;23;20380;-79
2023/09/11 10:01:14;;;;;;;8.30;6.30;;;26.50;73.30;;;;;;6034239;23;20387;-75
2023/09/11 10:03:49;;;;;;;6.57;5.07;;;26.50;72.80;;;;;;6036564;23;20452;-77
2023/09/11 10:06:31;;;;;;;9.33;5.83;;;26.60;71.90;;;;;;6083331;23;20375;-75
2023/09/11 10:09:13;;;;;;;11.30;6.83;;;26.60;71.50;;;;;;6060923;23;20422;-76
2023/09/11 10:11:41;;;;;;;10.40;6.20;;;26.80;69.70;;;;;;6058797;23;20394;-77
2023/09/11 10:14:09;;;;;;;8.23;6.13;;;26.90;69.50;;;;;;6086336;23;20421;-76
2023/09/11 10:16:36;;;;;;;8.10;6.20;;;26.90;68.90;;;;;;6085128;23;20343;-76
2023/09/11 10:19:03;;;;;;;5.20;4.70;;;26.90;68.30;;;;;;6061012;23;20382;-75
2023/09/11 10:21:34;;;;;;;6.93;5.93;;;27.00;68.30;;;;;;6062919;23;20178;-76
2023/09/11 10:24:00;;;;;;;5.90;4.80;;;27.10;67.90;;;;;;6061583;23;20394;-76
2023/09/11 10:26:29;;;;;;;7.93;6.10;;;27.20;67.90;;;;;;6061214;23;20426;-77
2023/09/11 10:29:05;;;;;;;10.70;6.77;;;27.30;67.40;;;;;;6063021;23;20181;-73
2023/09/11 10:32:03;;;;;;;7.93;5.90;;;27.30;66.60;;;;;;6085448;23;20478;-74
2023/09/11 10:34:37;;;;;;;7.33;6.33;;;27.40;66.50;;;;;;6037285;23;20441;-78
2023/09/11 10:37:08;;;;;;;9.47;6.60;;;27.40;65.80;;;;;;6068085;23;20389;-76
2023/09/11 10:39:37;;;;;;;9.40;7.00;;;27.50;66.00;;;;;;6044967;23;20453;-75
2023/09/11 10:42:05;;;;;;;6.40;5.73;;;27.60;64.70;;;;;;6041477;23;20374;-77
2023/09/11 10:44:36;;;;;;;7.67;6.80;;;27.60;65.70;;;;;;6090082;23;20432;-77
2023/09/11 10:47:04;;;;;;;7.20;5.57;;;27.60;65.20;;;;;;6094625;23;20381;-78
2023/09/11 10:49:40;;;;;;;7.03;6.13;;;27.70;64.40;;;;;;6047381;23;20429;-77
2023/09/11 10:52:09;;;;;;;8.23;6.17;;;27.80;64.00;;;;;;6073748;23;20428;-77
2023/09/11 10:55:01;;;;;;;7.00;5.67;;;27.80;63.60;;;;;;6056822;23;20460;-79
2023/09/11 10:57:30;;;;;;;7.03;5.63;;;27.90;62.20;;;;;;6076743;23;20479;-78
2023/09/11 10:59:58;;;;;;;6.50;5.83;;;28.00;62.10;;;;;;6073440;23;20404;-78
2023/09/11 11:02:40;;;;;;;7.20;5.80;;;28.20;61.80;;;;;;6034308;23;20163;-78
2023/09/11 11:05:17;;;;;;;7.30;5.73;;;28.20;60.50;;;;;;6007073;23;20388;-78
2023/09/11 11:07:46;;;;;;;6.63;5.40;;;28.30;60.40;;;;;;5960234;24;20375;-79
2023/09/11 11:10:16;;;;;;;6.30;5.13;;;28.40;60.30;;;;;;5953346;24;20436;-79
2023/09/11 11:15:35;;;;;;;6.30;5.60;;;28.50;60.00;;;;;;6005723;24;20404;-77
2023/09/11 11:18:26;;;;;;;6.13;5.50;;;28.50;59.50;;;;;;5982721;24;20356;-77
2023/09/11 11:21:05;;;;;;;7.23;6.20;;;28.60;59.40;;;;;;6006943;24;20155;-79
2023/09/11 11:23:34;;;;;;;6.57;5.80;;;28.70;58.80;;;;;;6019791;23;20383;-78
2023/09/11 11:26:16;;;;;;;6.40;5.50;;;28.70;59.00;;;;;;6007434;23;20395;-77
2023/09/11 11:28:46;;;;;;;10.10;6.30;;;28.80;59.10;;;;;;5961621;24;20380;-76
2023/09/11 11:31:19;;;;;;;7.13;5.40;;;28.90;58.50;;;;;;5981685;24;20384;-77
2023/09/11 11:33:51;;;;;;;7.73;6.23;;;29.00;58.60;;;;;;5978448;23;20508;-77
2023/09/11 11:36:20;;;;;;;8.57;6.20;;;29.00;58.20;;;;;;5981920;24;20388;-76
2023/09/11 11:38:46;;;;;;;7.50;5.60;;;29.00;57.80;;;;;;5982054;24;20428;-78
2023/09/11 11:41:13;;;;;;;8.30;5.80;;;29.10;57.40;;;;;;5979500;24;20384;-76
2023/09/11 11:43:42;;;;;;;8.77;6.80;;;29.10;56.80;;;;;;5958376;24;20431;-77
2023/09/11 11:46:13;;;;;;;9.60;6.83;;;29.10;56.20;;;;;;5982773;24;20373;-77
2023/09/11 11:48:40;;;;;;;9.80;6.97;;;29.00;56.20;;;;;;5981543;24;20356;-76
2023/09/11 11:51:28;;;;;;;6.80;6.10;;;29.10;56.00;;;;;;5958961;23;20399;-74
2023/09/11 11:53:57;;;;;;;10.40;6.80;;;29.10;56.10;;;;;;6003595;24;20408;-79
2023/09/11 11:56:25;;;;;;;10.73;7.37;;;29.20;55.90;;;;;;5966676;23;20375;-77
2023/09/11 11:58:56;;;;;;;8.23;5.53;;;29.20;55.50;;;;;;6008159;23;20754;-75
2023/09/11 12:01:21;;;;;;;7.47;6.10;;;29.40;56.10;;;;;;6056374;23;20391;-77
2023/09/11 12:03:49;;;;;;;7.00;5.80;;;29.40;55.90;;;;;;6033662;23;20398;-78
2023/09/11 12:06:18;;;;;;;9.53;5.63;;;29.40;56.10;;;;;;6010482;23;20271;-78
2023/09/11 12:08:45;;;;;;;9.17;6.87;;;29.50;55.30;;;;;;6008675;23;20409;-78
2023/09/11 12:11:25;;;;;;;11.50;6.03;;;29.60;54.80;;;;;;6011066;23;20383;-77
2023/09/11 12:13:51;;;;;;;8.63;5.50;;;29.50;54.50;;;;;;6014042;23;20451;-78
2023/09/11 12:16:17;;;;;;;5.80;5.30;;;29.60;54.80;;;;;;6033196;23;20374;-77
2023/09/11 12:18:46;;;;;;;9.20;6.07;;;29.60;54.90;;;;;;6031272;23;20398;-76
2023/09/11 12:21:13;;;;;;;9.13;7.13;;;29.60;54.30;;;;;;5987985;23;20403;-76
2023/09/11 12:23:40;;;;;;;6.97;6.33;;;29.60;53.90;;;;;;6009951;23;20403;-75
2023/09/11 12:26:12;;;;;;;13.70;7.70;;;29.60;53.60;;;;;;6033834;23;20338;-77
2023/09/11 12:28:40;;;;;;;9.67;7.10;;;29.70;52.80;;;;;;5977450;24;20707;-77
2023/09/11 12:31:09;;;;;;;8.33;6.17;;;29.80;52.60;;;;;;5921706;24;20394;-77
2023/09/11 12:33:36;;;;;;;8.23;6.40;;;29.90;52.50;;;;;;5922720;24;20418;-78
2023/09/11 12:36:02;;;;;;;7.37;5.37;;;29.90;52.50;;;;;;5923630;24;20395;-77
2023/09/11 12:38:35;;;;;;;7.90;5.83;;;29.90;52.80;;;;;;5926691;24;20386;-78
2023/09/11 12:41:04;;;;;;;9.80;7.23;;;30.00;53.00;;;;;;5878084;24;20419;-78
2023/09/11 12:46:04;;;;;;;10.73;6.80;;;30.10;52.70;;;;;;6039930;23;20457;-78